createdAt,value
2019-03-25T00:00:42.986Z,10.76
2019-03-25T00:01:43.023Z,10.81
2019-03-25T00:02:42.978Z,10.74
2019-03-25T00:03:43.009Z,10.76
2019-03-25T00:04:43.018Z,10.68
2019-03-25T00:05:42.927Z,10.65
2019-03-25T00:06:42.981Z,10.71
2019-03-25T00:07:43.001Z,10.71
2019-03-25T00:08:42.909Z,10.70
2019-03-25T00:09:42.931Z,10.60
2019-03-25T00:10:42.980Z,10.58
2019-03-25T00:11:42.927Z,10.68
2019-03-25T00:12:42.915Z,10.63
2019-03-25T00:13:42.950Z,10.60
2019-03-25T00:14:42.885Z,10.60
2019-03-25T00:15:42.945Z,10.59
2019-03-25T00:16:42.867Z,10.71
2019-03-25T00:17:42.899Z,10.65
2019-03-25T00:18:42.865Z,10.58
2019-03-25T00:19:42.883Z,10.62
2019-03-25T00:20:42.916Z,10.68
2019-03-25T00:21:42.882Z,10.63
2019-03-25T00:22:42.839Z,10.68
2019-03-25T00:23:42.818Z,10.71
2019-03-25T00:24:42.814Z,10.63
2019-03-25T00:25:42.804Z,10.55
2019-03-25T00:26:42.815Z,10.56
2019-03-25T00:27:42.801Z,10.56
2019-03-25T00:28:42.807Z,10.59
2019-03-25T00:29:42.804Z,10.53
2019-03-25T00:30:42.807Z,10.59
2019-03-25T00:31:42.766Z,10.53
2019-03-25T00:32:42.781Z,10.59
2019-03-25T00:33:42.755Z,10.53
2019-03-25T00:34:42.763Z,10.52
2019-03-25T00:35:42.750Z,10.43
2019-03-25T00:36:42.743Z,10.43
2019-03-25T00:37:42.735Z,10.37
2019-03-25T00:38:42.748Z,10.43
2019-03-25T00:39:42.738Z,10.42
2019-03-25T00:40:42.707Z,10.40
2019-03-25T00:41:51.441Z,10.37
2019-03-25T00:43:47.229Z,10.43
2019-03-25T00:44:47.172Z,10.37
2019-03-25T00:45:47.186Z,10.34
2019-03-25T00:46:47.155Z,10.34
2019-03-25T00:47:47.172Z,10.33
2019-03-25T00:48:47.164Z,10.24
2019-03-25T00:49:47.139Z,10.30
2019-03-25T00:50:47.173Z,10.28
2019-03-25T00:51:47.146Z,10.25
2019-03-25T00:52:54.820Z,10.24
2019-03-25T00:54:52.645Z,10.10
2019-03-25T00:55:52.633Z,10.25
2019-03-25T00:58:07.104Z,10.12
2019-03-25T00:58:58.107Z,10.15
2019-03-25T00:59:58.119Z,10.15
2019-03-25T01:00:58.110Z,10.15
2019-03-25T01:01:58.082Z,10.07
2019-03-25T01:03:06.828Z,10.01
2019-03-25T01:05:12.561Z,10.12
2019-03-25T01:06:12.297Z,10.04
2019-03-25T01:08:07.619Z,10.10
2019-03-25T01:09:07.660Z,10.10
2019-03-25T01:10:07.616Z,10.09
2019-03-25T01:11:07.672Z,10.07
2019-03-25T01:12:07.623Z,10.03
2019-03-25T01:13:07.591Z,9.94
2019-03-25T01:14:07.571Z,10.04
2019-03-25T01:15:07.558Z,10.07
2019-03-25T01:16:07.566Z,10.06
2019-03-25T01:17:07.570Z,10.06
2019-03-25T01:18:16.364Z,10.06
2019-03-25T01:19:07.549Z,10.01
2019-03-25T01:20:07.550Z,10.09
2019-03-25T01:21:16.999Z,10.09
2019-03-25T01:23:13.090Z,10.06
2019-03-25T01:24:13.151Z,9.97
2019-03-25T01:25:13.033Z,10.03
2019-03-25T01:26:13.029Z,9.94
2019-03-25T01:27:21.717Z,10.04
2019-03-25T01:32:37.344Z,10.06
2019-03-25T01:33:37.312Z,10.03
2019-03-25T01:34:37.286Z,10.09
2019-03-25T01:35:37.283Z,10.04
2019-03-25T01:36:37.287Z,10.06
2019-03-25T01:37:37.248Z,10.01
2019-03-25T01:38:37.279Z,10.01
2019-03-25T01:39:37.276Z,10.03
2019-03-25T01:40:37.236Z,9.96
2019-03-25T01:41:37.224Z,10.04
2019-03-25T01:42:37.225Z,10.04
2019-03-25T01:43:37.238Z,10.01
2019-03-25T01:44:37.213Z,10.01
2019-03-25T01:45:37.225Z,10.03
2019-03-25T01:46:37.189Z,10.00
2019-03-25T01:47:37.239Z,9.91
2019-03-25T01:48:37.213Z,10.06
2019-03-25T01:49:37.226Z,10.00
2019-03-25T01:50:37.191Z,10.01
2019-03-25T01:51:37.199Z,9.99
2019-03-25T01:52:37.195Z,9.91
2019-03-25T01:53:37.183Z,10.00
2019-03-25T01:54:37.163Z,9.99
2019-03-25T01:55:37.165Z,9.94
2019-03-25T01:56:37.162Z,9.96
2019-03-25T01:57:37.175Z,9.83
2019-03-25T01:58:37.263Z,9.86
2019-03-25T01:59:37.141Z,9.82
2019-03-25T02:00:45.933Z,9.93
2019-03-25T02:02:30.588Z,9.76
2019-03-25T02:03:39.284Z,9.85
2019-03-25T02:05:35.057Z,9.81
2019-03-25T02:06:44.765Z,9.79
2019-03-25T02:08:39.553Z,9.78
2019-03-25T02:09:48.208Z,9.79
2019-03-25T02:11:44.993Z,9.70
2019-03-25T02:12:44.983Z,9.76
2019-03-25T02:13:44.987Z,9.70
2019-03-25T02:14:44.945Z,9.61
2019-03-25T02:15:44.943Z,9.64
2019-03-25T02:16:44.945Z,9.66
2019-03-25T02:17:44.919Z,9.64
2019-03-25T02:18:44.939Z,9.66
2019-03-25T02:19:44.912Z,9.57
2019-03-25T02:20:44.909Z,9.71
2019-03-25T02:21:44.958Z,9.58
2019-03-25T02:22:45.058Z,9.66
2019-03-25T02:23:44.900Z,9.60
2019-03-25T02:24:44.877Z,9.58
2019-03-25T02:25:44.870Z,9.57
2019-03-25T02:26:44.857Z,9.61
2019-03-25T02:27:44.875Z,9.64
2019-03-25T02:28:44.866Z,9.61
2019-03-25T02:29:44.860Z,9.58
2019-03-25T02:30:44.849Z,9.49
2019-03-25T02:31:44.867Z,9.52
2019-03-25T02:32:44.821Z,9.49
2019-03-25T02:33:44.825Z,9.50
2019-03-25T02:34:53.779Z,9.52
2019-03-25T02:38:37.775Z,9.48
2019-03-25T02:39:37.407Z,9.34
2019-03-25T02:41:33.234Z,9.43
2019-03-25T02:42:33.218Z,9.39
2019-03-25T02:43:33.203Z,9.30
2019-03-25T02:44:33.193Z,9.45
2019-03-25T02:45:33.265Z,9.45
2019-03-25T02:46:33.179Z,9.24
2019-03-25T02:47:33.179Z,9.32
2019-03-25T02:48:33.173Z,9.30
2019-03-25T02:49:33.170Z,9.30
2019-03-25T02:50:33.159Z,9.30
2019-03-25T02:51:33.144Z,9.18
2019-03-25T02:52:33.143Z,9.18
2019-03-25T02:53:33.121Z,9.23
2019-03-25T02:54:33.114Z,9.25
2019-03-25T02:55:41.522Z,9.24
2019-03-25T02:56:33.110Z,9.10
2019-03-25T03:14:15.072Z,8.88
2019-03-25T03:15:11.712Z,8.75
2019-03-25T03:16:11.722Z,8.88
2019-03-25T03:17:11.699Z,8.86
2019-03-25T03:18:11.726Z,8.90
2019-03-25T03:19:11.678Z,8.88
2019-03-25T03:20:11.666Z,8.88
2019-03-25T03:21:11.657Z,8.78
2019-03-25T03:22:11.649Z,8.69
2019-03-25T03:23:20.285Z,8.71
2019-03-25T03:25:17.193Z,8.66
2019-03-25T03:26:26.818Z,8.66
2019-03-25T03:28:31.561Z,8.62
2019-03-25T03:29:32.687Z,8.69
2019-03-25T03:31:27.053Z,8.58
2019-03-25T03:32:27.059Z,8.58
2019-03-25T03:33:27.057Z,8.51
2019-03-25T03:34:27.026Z,8.53
2019-03-25T03:35:27.010Z,8.62
2019-03-25T03:36:27.009Z,8.66
2019-03-25T03:37:26.999Z,8.55
2019-03-25T03:38:26.983Z,8.54
2019-03-25T03:39:26.994Z,8.54
2019-03-25T03:40:26.977Z,8.45
2019-03-25T03:41:27.023Z,8.40
2019-03-25T03:42:26.966Z,8.35
2019-03-25T03:43:26.942Z,8.35
2019-03-25T03:44:26.957Z,8.28
2019-03-25T03:45:26.946Z,8.07
2019-03-25T03:46:26.937Z,8.11
2019-03-25T03:47:26.915Z,8.12
2019-03-25T03:48:26.902Z,8.18
2019-03-25T03:49:26.888Z,8.21
2019-03-25T03:50:26.896Z,8.21
2019-03-25T03:51:26.903Z,8.25
2019-03-25T03:52:26.914Z,8.22
2019-03-25T03:53:26.898Z,8.18
2019-03-25T03:54:33.101Z,8.21
2019-03-25T03:55:26.857Z,8.21
2019-03-25T03:56:26.844Z,8.21
2019-03-25T03:57:26.853Z,8.12
2019-03-25T03:58:26.847Z,8.14
2019-03-25T03:59:26.842Z,8.17
2019-03-25T04:00:26.787Z,8.08
2019-03-25T04:01:26.778Z,8.04
2019-03-25T04:02:26.769Z,8.04
2019-03-25T04:03:26.770Z,8.08
2019-03-25T04:04:26.781Z,7.96
2019-03-25T04:05:35.425Z,8.00
2019-03-25T04:07:31.701Z,7.93
2019-03-25T04:08:31.676Z,7.90
2019-03-25T04:09:31.639Z,8.02
2019-03-25T04:10:31.616Z,7.94
2019-03-25T04:11:31.632Z,7.94
2019-03-25T04:12:31.626Z,7.93
2019-03-25T04:13:31.633Z,7.84
2019-03-25T04:14:31.639Z,7.81
2019-03-25T04:15:31.602Z,7.89
2019-03-25T04:16:31.625Z,7.82
2019-03-25T04:17:31.580Z,7.85
2019-03-25T04:18:31.573Z,7.85
2019-03-25T04:19:31.597Z,7.85
2019-03-25T04:20:31.618Z,7.84
2019-03-25T04:21:31.540Z,7.78
2019-03-25T04:22:31.594Z,7.78
2019-03-25T04:23:31.574Z,7.89
2019-03-25T04:24:31.509Z,7.85
2019-03-25T04:25:31.526Z,7.84
2019-03-25T04:26:31.541Z,7.78
2019-03-25T04:27:31.510Z,7.84
2019-03-25T04:28:31.497Z,7.84
2019-03-25T04:29:40.254Z,7.82
2019-03-25T04:31:36.979Z,7.78
2019-03-25T04:32:36.971Z,7.69
2019-03-25T04:33:36.928Z,7.66
2019-03-25T04:34:37.067Z,7.66
2019-03-25T04:35:36.909Z,7.71
2019-03-25T04:36:36.926Z,7.62
2019-03-25T04:37:36.920Z,7.62
2019-03-25T04:38:36.943Z,7.66
2019-03-25T04:39:45.581Z,7.71
2019-03-25T04:41:41.428Z,7.67
2019-03-25T04:42:50.054Z,7.69
2019-03-25T04:44:45.884Z,7.62
2019-03-25T04:45:45.869Z,7.71
2019-03-25T04:46:45.827Z,7.58
2019-03-25T04:47:45.872Z,7.60
2019-03-25T04:48:45.829Z,7.62
2019-03-25T04:49:45.808Z,7.59
2019-03-25T04:50:45.813Z,7.55
2019-03-25T04:51:45.813Z,7.62
2019-03-25T04:52:54.527Z,7.47
2019-03-25T04:54:50.358Z,7.45
2019-03-25T04:55:58.961Z,7.47
2019-03-25T04:58:03.770Z,7.34
2019-03-25T04:59:05.398Z,7.26
2019-03-25T05:01:09.236Z,7.23
2019-03-25T05:02:08.930Z,7.29
2019-03-25T05:04:13.732Z,7.15
2019-03-25T05:05:13.448Z,7.13
2019-03-25T05:07:19.200Z,7.20
2019-03-25T05:08:18.070Z,7.19
2019-03-25T05:10:13.709Z,7.20
2019-03-25T05:11:13.680Z,7.08
2019-03-25T05:12:13.661Z,7.08
2019-03-25T05:13:13.652Z,7.15
2019-03-25T05:14:13.659Z,7.27
2019-03-25T05:15:13.654Z,7.24
2019-03-25T05:16:13.626Z,7.20
2019-03-25T05:17:13.822Z,7.24
2019-03-25T05:18:13.627Z,7.27
2019-03-25T05:19:13.621Z,7.31
2019-03-25T05:20:13.568Z,7.29
2019-03-25T05:21:13.580Z,7.31
2019-03-25T05:22:13.605Z,7.26
2019-03-25T05:23:13.584Z,7.42
2019-03-25T05:24:13.593Z,7.37
2019-03-25T05:25:13.566Z,7.38
2019-03-25T05:26:13.521Z,7.44
2019-03-25T05:27:13.605Z,7.53
2019-03-25T05:28:13.512Z,7.50
2019-03-25T05:29:13.521Z,7.62
2019-03-25T05:30:13.516Z,7.58
2019-03-25T05:31:13.523Z,7.49
2019-03-25T05:32:13.520Z,7.47
2019-03-25T05:33:13.467Z,7.59
2019-03-25T05:34:13.486Z,7.59
2019-03-25T05:35:13.449Z,7.60
2019-03-25T05:36:13.457Z,7.45
2019-03-25T05:37:13.450Z,7.59
2019-03-25T05:38:13.420Z,7.56
2019-03-25T05:39:13.453Z,7.60
2019-03-25T05:40:13.419Z,7.59
2019-03-25T05:41:13.403Z,7.60
2019-03-25T05:42:13.397Z,7.74
2019-03-25T05:43:13.406Z,7.66
2019-03-25T05:44:13.396Z,7.72
2019-03-25T05:45:13.412Z,7.75
2019-03-25T05:46:13.348Z,7.84
2019-03-25T05:47:13.368Z,7.85
2019-03-25T05:48:13.343Z,7.87
2019-03-25T05:49:13.344Z,7.93
2019-03-25T05:50:13.344Z,7.93
2019-03-25T05:51:13.321Z,7.97
2019-03-25T05:52:13.356Z,8.04
2019-03-25T05:53:13.313Z,7.94
2019-03-25T05:54:13.285Z,8.03
2019-03-25T05:55:13.295Z,8.11
2019-03-25T05:56:13.298Z,8.12
2019-03-25T05:57:13.322Z,8.07
2019-03-25T05:58:21.978Z,8.08
2019-03-25T06:00:17.811Z,8.04
2019-03-25T06:01:17.739Z,8.18
2019-03-25T06:02:17.737Z,8.08
2019-03-25T06:03:17.754Z,8.18
2019-03-25T06:04:17.734Z,8.12
2019-03-25T06:05:17.705Z,8.07
2019-03-25T06:06:17.701Z,7.99
2019-03-25T06:07:17.712Z,8.08
2019-03-25T06:08:17.709Z,8.03
2019-03-25T06:09:17.677Z,8.03
2019-03-25T06:10:17.732Z,8.04
2019-03-25T06:11:17.684Z,7.92
2019-03-25T06:12:17.646Z,7.94
2019-03-25T06:13:17.685Z,7.94
2019-03-25T06:14:17.640Z,7.90
2019-03-25T06:15:17.720Z,7.78
2019-03-25T06:16:17.662Z,7.82
2019-03-25T06:17:17.631Z,7.85
2019-03-25T06:18:20.287Z,7.85
2019-03-25T06:19:17.625Z,7.81
2019-03-25T06:20:17.588Z,7.79
2019-03-25T06:21:17.582Z,7.77
2019-03-25T06:22:17.590Z,7.77
2019-03-25T06:23:17.594Z,7.87
2019-03-25T06:24:17.570Z,7.89
2019-03-25T06:25:17.554Z,7.79
2019-03-25T06:26:17.540Z,7.85
2019-03-25T06:27:17.531Z,7.81
2019-03-25T06:28:17.543Z,7.81
2019-03-25T06:29:17.508Z,7.82
2019-03-25T06:30:17.515Z,7.81
2019-03-25T06:31:17.528Z,7.85
2019-03-25T06:32:17.508Z,7.75
2019-03-25T06:33:17.467Z,7.72
2019-03-25T06:34:17.491Z,7.84
2019-03-25T06:35:17.461Z,7.85
2019-03-25T06:36:17.446Z,7.84
2019-03-25T06:37:17.465Z,7.69
2019-03-25T06:38:17.458Z,7.71
2019-03-25T06:39:17.471Z,7.67
2019-03-25T06:40:17.419Z,7.67
2019-03-25T06:41:17.431Z,7.67
2019-03-25T06:42:17.410Z,7.50
2019-03-25T06:43:17.407Z,7.45
2019-03-25T06:44:17.402Z,7.52
2019-03-25T06:45:17.410Z,7.59
2019-03-25T06:46:17.384Z,7.56
2019-03-25T06:47:17.369Z,7.56
2019-03-25T06:48:17.352Z,7.62
2019-03-25T06:49:17.371Z,7.78
2019-03-25T06:50:17.338Z,7.87
2019-03-25T06:51:17.357Z,7.77
2019-03-25T06:52:17.377Z,7.87
2019-03-25T06:53:17.344Z,7.92
2019-03-25T06:54:17.297Z,7.90
2019-03-25T06:55:17.305Z,7.89
2019-03-25T06:56:17.297Z,7.94
2019-03-25T06:57:25.430Z,7.96
2019-03-25T06:58:17.292Z,7.96
2019-03-25T06:59:17.272Z,7.97
2019-03-25T07:00:17.248Z,7.96
2019-03-25T07:01:17.242Z,7.84
2019-03-25T07:02:17.269Z,7.84
2019-03-25T07:03:17.253Z,7.84
2019-03-25T07:04:17.249Z,7.85
2019-03-25T07:05:17.250Z,7.79
2019-03-25T07:06:17.236Z,7.87
2019-03-25T07:07:17.266Z,7.84
2019-03-25T07:08:17.200Z,7.75
2019-03-25T07:09:18.723Z,7.74
2019-03-25T07:10:17.182Z,7.78
2019-03-25T07:11:17.183Z,7.82
2019-03-25T07:12:17.179Z,7.82
2019-03-25T07:13:17.188Z,7.84
2019-03-25T07:14:17.136Z,7.87
2019-03-25T07:15:17.214Z,7.81
2019-03-25T07:16:17.133Z,7.94
2019-03-25T07:17:17.136Z,7.85
2019-03-25T07:18:17.135Z,8.00
2019-03-25T07:19:17.131Z,8.02
2019-03-25T07:20:17.121Z,8.12
2019-03-25T07:21:17.080Z,7.94
2019-03-25T07:22:17.083Z,8.00
2019-03-25T07:23:17.069Z,8.08
2019-03-25T07:24:17.076Z,8.00
2019-03-25T07:25:17.082Z,8.07
2019-03-25T07:26:17.062Z,8.04
2019-03-25T07:27:17.045Z,7.94
2019-03-25T07:28:17.023Z,7.96
2019-03-25T07:29:17.017Z,8.04
2019-03-25T07:30:17.057Z,7.96
2019-03-25T07:31:17.010Z,8.07
2019-03-25T07:32:17.037Z,8.07
2019-03-25T07:33:17.019Z,8.08
2019-03-25T07:34:16.976Z,8.08
2019-03-25T07:35:17.021Z,8.17
2019-03-25T07:36:17.036Z,8.12
2019-03-25T07:37:16.965Z,8.11
2019-03-25T07:38:16.981Z,8.17
2019-03-25T07:39:16.963Z,8.26
2019-03-25T07:40:16.987Z,8.29
2019-03-25T07:41:17.201Z,8.25
2019-03-25T07:42:16.986Z,8.22
2019-03-25T07:43:16.907Z,8.20
2019-03-25T07:44:16.917Z,8.32
2019-03-25T07:45:16.897Z,8.28
2019-03-25T07:46:16.917Z,8.25
2019-03-25T07:47:16.891Z,8.20
2019-03-25T07:48:16.923Z,8.32
2019-03-25T07:49:16.894Z,8.33
2019-03-25T07:50:16.849Z,8.30
2019-03-25T07:51:16.845Z,8.26
2019-03-25T07:52:16.864Z,8.35
2019-03-25T07:53:16.840Z,8.28
2019-03-25T07:56:07.550Z,8.33
2019-03-25T07:57:07.563Z,8.44
2019-03-25T07:58:07.555Z,8.33
2019-03-25T07:59:07.685Z,8.30
2019-03-25T08:00:13.451Z,8.33
2019-03-25T08:01:17.312Z,8.30
2019-03-25T08:03:12.052Z,8.35
2019-03-25T08:04:11.964Z,8.29
2019-03-25T08:05:12.058Z,8.30
2019-03-25T08:06:11.904Z,8.29
2019-03-25T08:07:11.906Z,8.36
2019-03-25T08:08:11.967Z,8.40
2019-03-25T08:09:11.882Z,8.47
2019-03-25T08:10:11.927Z,8.51
2019-03-25T08:11:11.904Z,8.26
2019-03-25T08:12:11.879Z,8.37
2019-03-25T08:13:11.956Z,8.42
2019-03-25T08:14:11.860Z,8.28
2019-03-25T08:15:11.854Z,8.44
2019-03-25T08:16:11.820Z,8.53
2019-03-25T08:17:11.814Z,8.53
2019-03-25T08:18:20.537Z,8.50
2019-03-25T08:20:16.391Z,8.55
2019-03-25T08:21:26.161Z,8.54
2019-03-25T08:23:21.645Z,8.63
2019-03-25T08:24:30.565Z,8.62
2019-03-25T08:26:26.161Z,8.66
2019-03-25T08:27:34.925Z,8.63
2019-03-25T08:29:30.602Z,8.73
2019-03-25T08:30:38.450Z,8.66
2019-03-25T08:32:24.093Z,8.71
2019-03-25T08:33:24.030Z,8.79
2019-03-25T08:35:28.627Z,8.87
2019-03-25T08:36:37.523Z,8.83
2019-03-25T08:38:33.036Z,8.73
2019-03-25T08:39:32.946Z,8.81
2019-03-25T08:40:32.961Z,8.75
2019-03-25T08:41:32.923Z,8.73
2019-03-25T08:42:32.990Z,8.83
2019-03-25T08:43:41.103Z,8.88
2019-03-25T08:45:45.882Z,8.99
2019-03-25T08:46:45.794Z,9.05
2019-03-25T08:47:45.863Z,9.09
2019-03-25T08:48:45.749Z,9.06
2019-03-25T08:49:45.764Z,9.16
2019-03-25T08:50:45.741Z,9.09
2019-03-25T08:51:45.744Z,9.12
2019-03-25T08:52:45.740Z,9.25
2019-03-25T08:53:45.730Z,9.21
2019-03-25T08:54:45.717Z,9.38
2019-03-25T08:55:45.744Z,9.23
2019-03-25T08:56:45.756Z,9.25
2019-03-25T08:57:45.706Z,9.38
2019-03-25T08:58:45.793Z,9.38
2019-03-25T08:59:45.673Z,9.35
2019-03-25T09:00:45.706Z,9.52
2019-03-25T09:01:45.660Z,9.38
2019-03-25T09:02:45.691Z,9.38
2019-03-25T09:03:45.675Z,9.35
2019-03-25T09:04:45.711Z,9.45
2019-03-25T09:05:45.664Z,9.46
2019-03-25T09:06:47.853Z,9.53
2019-03-25T09:07:45.629Z,9.46
2019-03-25T09:08:45.621Z,9.61
2019-03-25T09:11:27.372Z,9.49
2019-03-25T09:12:26.987Z,9.53
2019-03-25T09:13:26.994Z,9.45
2019-03-25T09:14:27.127Z,9.39
2019-03-25T09:15:26.920Z,9.52
2019-03-25T09:16:27.364Z,9.49
2019-03-25T09:17:27.836Z,9.46
2019-03-25T09:18:27.047Z,9.46
2019-03-25T09:19:26.982Z,9.39
2019-03-25T09:20:27.156Z,9.48
2019-03-25T09:21:27.206Z,9.46
2019-03-25T09:22:27.132Z,9.46
2019-03-25T09:23:27.068Z,9.56
2019-03-25T09:24:27.017Z,9.63
2019-03-25T09:25:27.033Z,9.64
2019-03-25T09:26:27.121Z,9.61
2019-03-25T09:27:27.132Z,9.66
2019-03-25T09:28:27.148Z,9.66
2019-03-25T09:29:27.079Z,9.73
2019-03-25T09:30:27.365Z,9.71
2019-03-25T09:31:36.318Z,9.73
2019-03-25T09:32:27.049Z,9.67
2019-03-25T09:33:26.931Z,9.58
2019-03-25T09:34:27.038Z,9.64
2019-03-25T09:35:27.196Z,9.63
2019-03-25T09:36:26.954Z,9.73
2019-03-25T09:37:27.067Z,9.75
2019-03-25T09:38:27.078Z,9.76
2019-03-25T09:39:27.665Z,9.73
2019-03-25T09:40:26.978Z,9.71
2019-03-25T09:41:26.935Z,9.78
2019-03-25T09:42:26.888Z,9.82
2019-03-25T09:43:27.063Z,9.70
2019-03-25T09:44:26.977Z,9.79
2019-03-25T09:45:27.225Z,9.83
2019-03-25T09:46:26.764Z,9.73
2019-03-25T09:47:26.967Z,9.78
2019-03-25T09:48:27.014Z,9.79
2019-03-25T09:49:27.138Z,9.75
2019-03-25T09:50:26.838Z,9.82
2019-03-25T09:51:27.573Z,9.76
2019-03-25T09:52:37.939Z,9.76
2019-03-25T09:53:26.696Z,9.81
2019-03-25T09:54:27.571Z,9.78
2019-03-25T09:55:26.700Z,9.83
2019-03-25T09:56:27.445Z,9.97
2019-03-25T09:57:27.153Z,9.99
2019-03-25T09:58:35.579Z,10.04
2019-03-25T09:59:27.498Z,10.01
2019-03-25T10:00:27.346Z,10.18
2019-03-25T10:01:26.862Z,10.19
2019-03-25T10:02:26.778Z,10.18
2019-03-25T10:03:26.667Z,10.28
2019-03-25T10:04:27.462Z,10.22
2019-03-25T10:05:26.931Z,10.19
2019-03-25T10:06:26.660Z,10.19
2019-03-25T10:07:28.430Z,10.12
2019-03-25T10:08:26.649Z,10.15
2019-03-25T10:09:26.898Z,10.17
2019-03-25T10:10:26.619Z,10.21
2019-03-25T10:11:26.598Z,10.18
2019-03-25T10:12:26.585Z,10.18
2019-03-25T10:13:26.660Z,10.06
2019-03-25T10:14:26.732Z,10.06
2019-03-25T10:15:35.843Z,10.09
2019-03-25T10:17:21.674Z,10.14
2019-03-25T10:18:21.186Z,10.34
2019-03-25T10:20:30.341Z,10.52
2019-03-25T10:21:30.242Z,10.59
2019-03-25T10:22:30.526Z,10.53
2019-03-25T10:23:30.248Z,10.55
2019-03-25T10:24:30.627Z,10.53
2019-03-25T10:25:30.062Z,10.44
2019-03-25T10:26:30.151Z,10.43
2019-03-25T10:27:30.006Z,10.44
2019-03-25T10:28:30.255Z,10.36
2019-03-25T10:29:30.344Z,10.22
2019-03-25T10:30:30.361Z,10.34
2019-03-25T10:31:30.413Z,10.43
2019-03-25T10:32:29.983Z,10.36
2019-03-25T10:33:30.028Z,10.43
2019-03-25T10:34:30.654Z,10.47
2019-03-25T10:35:29.985Z,10.32
2019-03-25T10:36:31.703Z,10.33
2019-03-25T10:37:29.961Z,10.43
2019-03-25T10:38:29.962Z,10.32
2019-03-25T10:39:29.970Z,10.34
2019-03-25T10:40:29.948Z,10.40
2019-03-25T10:41:29.940Z,10.44
2019-03-25T10:42:29.946Z,10.42
2019-03-25T10:43:29.933Z,10.39
2019-03-25T10:44:29.984Z,10.43
2019-03-25T10:45:29.946Z,10.42
2019-03-25T10:46:29.918Z,10.37
2019-03-25T10:47:29.934Z,10.43
2019-03-25T10:48:29.934Z,10.39
2019-03-25T10:49:29.916Z,10.34
2019-03-25T10:50:29.881Z,10.34
2019-03-25T10:51:29.922Z,10.30
2019-03-25T10:52:29.895Z,10.18
2019-03-25T10:53:29.898Z,10.22
2019-03-25T10:54:30.006Z,10.18
2019-03-25T10:55:40.025Z,10.26
2019-03-25T10:57:34.379Z,10.40
2019-03-25T10:58:42.321Z,10.42
2019-03-25T11:00:39.984Z,10.52
2019-03-25T11:01:39.927Z,10.60
2019-03-25T11:02:39.830Z,10.60
2019-03-25T11:03:39.835Z,10.53
2019-03-25T11:04:39.975Z,10.65
2019-03-25T11:05:39.841Z,10.55
2019-03-25T11:06:39.817Z,10.68
2019-03-25T11:07:39.936Z,10.73
2019-03-25T11:08:39.803Z,10.98
2019-03-25T11:09:39.808Z,11.02
2019-03-25T11:10:39.849Z,11.09
2019-03-25T11:11:39.784Z,11.03
2019-03-25T11:12:39.801Z,11.10
2019-03-25T11:13:39.793Z,10.98
2019-03-25T11:14:39.792Z,10.84
2019-03-25T11:15:39.813Z,10.68
2019-03-25T11:16:39.786Z,10.62
2019-03-25T11:17:39.799Z,10.66
2019-03-25T11:18:39.901Z,10.71
2019-03-25T11:19:39.845Z,10.76
2019-03-25T11:20:39.884Z,10.78
2019-03-25T11:21:39.737Z,10.78
2019-03-25T11:22:39.726Z,10.96
2019-03-25T11:23:39.726Z,11.07
2019-03-25T11:24:39.687Z,11.21
2019-03-25T11:25:39.701Z,11.28
2019-03-25T11:26:39.712Z,11.28
2019-03-25T11:27:39.690Z,11.36
2019-03-25T11:28:39.732Z,11.29
2019-03-25T11:29:39.684Z,11.35
2019-03-25T11:30:39.682Z,11.39
2019-03-25T11:31:39.701Z,11.36
2019-03-25T11:32:39.697Z,11.34
2019-03-25T11:33:39.751Z,11.46
2019-03-25T11:34:39.662Z,11.47
2019-03-25T11:35:39.676Z,11.61
2019-03-25T11:36:39.692Z,11.52
2019-03-25T11:37:39.676Z,11.65
2019-03-25T11:38:39.674Z,11.64
2019-03-25T11:39:39.806Z,11.80
2019-03-25T11:40:48.786Z,11.70
2019-03-25T11:42:33.284Z,11.54
2019-03-25T11:43:33.120Z,11.52
2019-03-25T11:44:33.909Z,11.72
2019-03-25T11:45:33.270Z,11.68
2019-03-25T11:46:33.030Z,11.50
2019-03-25T11:47:33.015Z,11.54
2019-03-25T11:48:33.059Z,11.50
2019-03-25T11:49:33.034Z,11.65
2019-03-25T11:50:32.996Z,11.50
2019-03-25T11:51:33.056Z,11.47
2019-03-25T11:54:13.105Z,11.49
2019-03-25T11:55:22.582Z,11.49
2019-03-25T11:57:27.523Z,11.46
2019-03-25T11:58:18.405Z,11.59
2019-03-25T11:59:19.052Z,11.43
2019-03-25T12:00:18.375Z,11.39
2019-03-25T12:01:18.548Z,11.41
2019-03-25T12:02:18.379Z,11.29
2019-03-25T12:03:18.340Z,11.27
2019-03-25T12:04:18.426Z,11.46
2019-03-25T12:05:18.426Z,11.29
2019-03-25T12:06:18.351Z,11.36
2019-03-25T12:07:18.532Z,11.39
2019-03-25T12:08:18.273Z,11.43
2019-03-25T12:09:18.331Z,11.29
2019-03-25T12:10:18.298Z,11.25
2019-03-25T12:11:18.291Z,11.06
2019-03-25T12:12:18.346Z,11.09
2019-03-25T12:13:18.358Z,11.09
2019-03-25T12:14:18.302Z,11.09
2019-03-25T12:15:18.310Z,10.92
2019-03-25T12:16:18.291Z,11.03
2019-03-25T12:17:27.224Z,11.24
2019-03-25T12:19:23.552Z,11.31
2019-03-25T12:20:31.715Z,11.35
2019-03-25T12:22:25.339Z,11.52
2019-03-25T12:23:25.750Z,11.50
2019-03-25T12:24:24.908Z,11.53
2019-03-25T12:26:20.968Z,11.61
2019-03-25T12:27:31.093Z,11.77
2019-03-25T12:29:30.485Z,11.54
2019-03-25T12:30:25.654Z,11.47
2019-03-25T12:31:25.935Z,11.52
2019-03-25T12:32:25.102Z,11.54
2019-03-25T12:33:25.104Z,11.71
2019-03-25T12:34:25.231Z,11.65
2019-03-25T12:35:25.060Z,11.77
2019-03-25T12:36:25.171Z,11.75
2019-03-25T12:37:25.081Z,11.72
2019-03-25T12:38:25.090Z,11.68
2019-03-25T12:39:25.115Z,11.75
2019-03-25T12:40:25.062Z,11.77
2019-03-25T12:41:25.112Z,11.67
2019-03-25T12:42:25.098Z,11.74
2019-03-25T12:43:25.163Z,11.72
2019-03-25T12:44:25.037Z,11.72
2019-03-25T12:45:25.134Z,11.65
2019-03-25T12:46:25.054Z,11.56
2019-03-25T12:47:25.054Z,11.64
2019-03-25T12:48:25.036Z,11.65
2019-03-25T12:49:25.098Z,11.70
2019-03-25T12:50:25.005Z,11.68
2019-03-25T12:51:25.022Z,11.70
2019-03-25T12:52:25.014Z,11.78
2019-03-25T12:53:25.030Z,11.75
2019-03-25T12:54:25.112Z,11.65
2019-03-25T12:55:24.975Z,11.70
2019-03-25T12:56:25.052Z,11.64
2019-03-25T12:57:24.992Z,11.62
2019-03-25T12:58:24.984Z,11.68
2019-03-25T12:59:24.966Z,11.67
2019-03-25T13:00:25.086Z,11.54
2019-03-25T13:01:24.949Z,11.53
2019-03-25T13:02:24.944Z,11.64
2019-03-25T13:03:24.985Z,11.77
2019-03-25T13:04:24.987Z,11.75
2019-03-25T13:05:24.959Z,11.72
2019-03-25T13:06:24.959Z,11.77
2019-03-25T13:07:24.902Z,11.94
2019-03-25T13:08:32.750Z,11.94
2019-03-25T13:09:34.004Z,11.99
2019-03-25T13:11:29.794Z,11.96
2019-03-25T13:12:29.431Z,11.90
2019-03-25T13:13:29.474Z,11.86
2019-03-25T13:14:29.610Z,11.87
2019-03-25T13:15:29.667Z,11.85
2019-03-25T13:16:29.392Z,11.78
2019-03-25T13:17:29.462Z,11.65
2019-03-25T13:18:29.424Z,11.70
2019-03-25T13:19:29.428Z,11.72
2019-03-25T13:20:29.377Z,11.65
2019-03-25T13:21:29.405Z,11.72
2019-03-25T13:22:29.375Z,11.62
2019-03-25T13:23:38.482Z,11.46
2019-03-25T13:25:34.101Z,11.50
2019-03-25T13:26:33.906Z,11.47
2019-03-25T13:27:33.868Z,11.46
2019-03-25T13:30:38.516Z,11.49
2019-03-25T13:33:42.980Z,11.29
2019-03-25T13:34:42.903Z,11.39
2019-03-25T13:35:52.149Z,11.19
2019-03-25T13:37:36.534Z,10.62
2019-03-25T13:38:36.284Z,10.37
2019-03-25T13:39:36.333Z,10.18
2019-03-25T13:40:36.558Z,10.00
2019-03-25T13:41:36.254Z,9.82
2019-03-25T13:42:36.211Z,9.60
2019-03-25T13:43:36.206Z,9.57
2019-03-25T13:44:36.269Z,9.38
2019-03-25T13:45:36.201Z,9.58
2019-03-25T13:46:36.234Z,9.67
2019-03-25T13:47:36.204Z,9.58
2019-03-25T13:48:45.422Z,9.60
2019-03-25T13:50:40.747Z,9.70
2019-03-25T13:53:46.627Z,9.96
2019-03-25T13:54:46.198Z,10.07
2019-03-25T13:55:46.959Z,10.10
2019-03-25T13:56:46.174Z,10.33
2019-03-25T13:57:46.188Z,10.21
2019-03-25T13:58:46.125Z,10.28
2019-03-25T14:00:02.867Z,10.32
2019-03-25T14:01:59.974Z,10.36
2019-03-25T14:03:00.587Z,10.33
2019-03-25T14:05:03.729Z,10.53
2019-03-25T14:06:04.489Z,10.55
2019-03-25T14:08:10.313Z,10.71
2019-03-25T14:09:10.226Z,10.65
2019-03-25T14:10:54.106Z,10.46
2019-03-25T14:11:54.064Z,10.43
2019-03-25T14:12:53.965Z,10.56
2019-03-25T14:13:53.687Z,10.43
2019-03-25T14:14:53.688Z,10.22
2019-03-25T14:15:53.653Z,10.26
2019-03-25T14:16:53.670Z,10.32
2019-03-25T14:17:53.659Z,10.36
2019-03-25T14:18:53.645Z,10.28
2019-03-25T14:19:53.656Z,10.34
2019-03-25T14:20:53.893Z,10.26
2019-03-25T14:21:53.635Z,10.17
2019-03-25T14:22:53.633Z,10.21
2019-03-25T14:23:53.595Z,10.17
2019-03-25T14:24:53.654Z,10.21
2019-03-25T14:25:53.623Z,10.21
2019-03-25T14:26:53.614Z,10.21
2019-03-25T14:27:53.577Z,10.28
2019-03-25T14:28:53.583Z,10.30
2019-03-25T14:29:53.639Z,10.37
2019-03-25T14:30:53.618Z,10.28
2019-03-25T14:31:53.551Z,10.24
2019-03-25T14:32:53.611Z,10.33
2019-03-25T14:33:53.608Z,10.34
2019-03-25T14:34:53.566Z,10.30
2019-03-25T14:35:53.681Z,10.34
2019-03-25T14:36:53.533Z,10.42
2019-03-25T14:37:53.624Z,10.39